Archival Weather

Fukuoka

Fukuoka, Japan (RJFF)

Report from: Tuesday, August 16, 2022 11:37 AM JST
Current time: Sunday, November 27, 2022 5:11 PM JST

Current weather
Weather history
Weather forecast

Present weatherRain showers
Temperature29.0°C (84.2°F)
Heat index35.6°C (96.1°F)
Dew point26.0°C (78.8°F)
Winds 13 kts (6.7 m/s, 15 mph) South-Southeast (160°)
Visibility6.2 mi. (10 km)
Clouds Few clouds 1,000 ft. (305 m)
Few clouds with cumulonimbus 2,500 ft. (762 m)
Scattered clouds 3,500 ft. (1,067 m)
Ceiling: Broken clouds 4,500 ft. (1,372 m)
Altimeter29.74 in.Hg (1007 mB)
Precip. events C 11:01 AM
Relative humidity84 %
Density altitude2,266 ft. (691 m)
Remarks Special weather observation
Cumulonimbus clouds observed northwest moving northeast
Flight conditions Visual Meteorological Conditions
Raw dataSPJP31 KWBC 160244 SPECI RJFF 160237Z 16013KT 9999 SHRA FEW010 FEW025CB SCT035 BKN045 29/26 Q1007 RMK 1CU010 1CB025 4CU035 6CU045 A2974 CB 10KM NW MOV NE
An error has occurred. This application may no longer respond until reloaded. Reload 🗙